createdAt,value
2022-10-17T00:02:04.579Z,26.50
2022-10-17T00:04:32.086Z,24.20
2022-10-17T00:07:13.931Z,26.60
2022-10-17T00:09:44.220Z,28.80
2022-10-17T00:12:11.487Z,18.50
2022-10-17T00:14:38.821Z,25.40
2022-10-17T00:17:06.306Z,26.10
2022-10-17T00:19:33.506Z,23.10
2022-10-17T00:22:01.085Z,27.40
2022-10-17T00:24:31.507Z,29.10
2022-10-17T00:26:58.968Z,25.00
2022-10-17T00:29:26.496Z,21.20
2022-10-17T00:31:55.871Z,29.10
2022-10-17T00:34:25.108Z,25.20
2022-10-17T00:36:52.700Z,35.90
2022-10-17T00:39:20.445Z,33.10
2022-10-17T00:41:47.923Z,32.10
2022-10-17T00:44:34.470Z,31.90
2022-10-17T00:47:09.142Z,35.30
2022-10-17T00:49:39.016Z,25.30
2022-10-17T00:52:11.260Z,32.20
2022-10-17T00:54:44.137Z,21.00
2022-10-17T00:57:12.115Z,24.40
2022-10-17T00:59:41.430Z,35.80
2022-10-17T01:02:15.833Z,32.90
2022-10-17T01:04:46.311Z,31.60
2022-10-17T01:07:13.748Z,28.00
2022-10-17T01:09:43.922Z,36.30
2022-10-17T01:12:30.124Z,28.30
2022-10-17T01:14:57.964Z,25.40
2022-10-17T01:17:53.827Z,19.90
2022-10-17T01:20:46.125Z,27.20
2022-10-17T01:23:36.407Z,22.50
2022-10-17T01:26:18.836Z,21.40
2022-10-17T01:29:01.176Z,25.60
2022-10-17T01:31:54.703Z,22.00
2022-10-17T01:34:35.810Z,21.00
2022-10-17T01:37:45.307Z,20.80
2022-10-17T01:40:25.384Z,13.80
2022-10-17T01:43:03.899Z,22.30
2022-10-17T01:45:40.680Z,24.20
2022-10-17T01:48:16.377Z,20.70
2022-10-17T01:50:51.371Z,14.50
2022-10-17T01:53:27.208Z,21.40
2022-10-17T01:55:59.420Z,18.60
2022-10-17T01:58:36.363Z,18.80
2022-10-17T02:01:07.395Z,19.40
2022-10-17T02:03:51.648Z,18.10
2022-10-17T02:06:19.031Z,23.70
2022-10-17T02:08:49.578Z,23.40
2022-10-17T02:11:26.160Z,19.50
2022-10-17T02:13:53.789Z,18.40
2022-10-17T02:16:29.882Z,16.30
2022-10-17T02:19:02.762Z,20.50
2022-10-17T02:22:09.096Z,21.80
2022-10-17T02:24:56.948Z,24.60
2022-10-17T02:27:46.085Z,27.10
2022-10-17T02:30:19.788Z,26.50
2022-10-17T02:32:55.469Z,19.80
2022-10-17T02:35:26.869Z,16.00
2022-10-17T02:37:55.273Z,19.40
2022-10-17T02:40:39.548Z,24.30
2022-10-17T02:43:07.547Z,23.40
2022-10-17T02:45:37.381Z,19.10
2022-10-17T02:48:36.969Z,18.90
2022-10-17T02:51:26.018Z,36.60
2022-10-17T02:54:09.731Z,18.70
2022-10-17T02:56:46.089Z,24.80
2022-10-17T02:59:17.268Z,15.50
2022-10-17T03:01:44.891Z,16.60
2022-10-17T03:04:14.341Z,38.00
2022-10-17T03:06:44.420Z,19.20
2022-10-17T03:09:12.127Z,16.90
2022-10-17T03:11:41.775Z,22.00
2022-10-17T03:14:23.846Z,23.80
2022-10-17T03:16:52.449Z,17.00
2022-10-17T03:19:21.322Z,17.10
2022-10-17T03:22:03.106Z,22.90
2022-10-17T03:24:31.122Z,16.00
2022-10-17T03:26:59.512Z,17.00
2022-10-17T03:29:27.185Z,17.00
2022-10-17T03:31:54.809Z,22.00
2022-10-17T03:34:22.836Z,21.20
2022-10-17T03:36:50.624Z,21.80
2022-10-17T03:39:19.126Z,14.40
2022-10-17T03:41:46.288Z,22.50
2022-10-17T03:44:15.371Z,26.50
2022-10-17T03:46:43.341Z,27.00
2022-10-17T03:49:10.737Z,21.90
2022-10-17T03:51:38.010Z,22.30
2022-10-17T03:54:09.285Z,24.70
2022-10-17T03:56:37.827Z,15.50
2022-10-17T03:59:14.707Z,14.70
2022-10-17T04:01:44.166Z,22.80
2022-10-17T04:04:12.853Z,22.70
2022-10-17T04:06:40.792Z,16.90
2022-10-17T04:09:09.984Z,29.60
2022-10-17T04:11:56.438Z,33.40
2022-10-17T04:14:24.459Z,21.00
2022-10-17T04:16:53.031Z,21.10
2022-10-17T04:19:21.643Z,19.00
2022-10-17T04:21:50.258Z,16.40
2022-10-17T04:24:18.506Z,20.40
2022-10-17T04:26:50.892Z,28.80
2022-10-17T04:29:18.806Z,21.50
2022-10-17T04:31:47.694Z,23.80
2022-10-17T04:34:19.709Z,16.70
2022-10-17T04:36:47.433Z,16.30
2022-10-17T04:39:30.054Z,21.40
2022-10-17T04:41:58.451Z,15.90
2022-10-17T04:44:26.004Z,14.10
2022-10-17T04:46:53.553Z,21.20
2022-10-17T04:49:21.053Z,18.10
2022-10-17T04:51:50.166Z,25.60
2022-10-17T04:54:31.945Z,19.90
2022-10-17T04:57:08.587Z,16.90
2022-10-17T04:59:36.102Z,15.70
2022-10-17T05:02:27.041Z,17.70
2022-10-17T05:04:55.543Z,31.10
2022-10-17T05:07:22.991Z,15.70
2022-10-17T05:10:03.377Z,23.50
2022-10-17T05:12:31.852Z,18.80
2022-10-17T05:14:59.707Z,22.20
2022-10-17T05:17:28.195Z,17.90
2022-10-17T05:19:55.542Z,18.90
2022-10-17T05:22:23.239Z,18.20
2022-10-17T05:24:50.981Z,25.70
2022-10-17T05:27:19.511Z,21.40
2022-10-17T05:29:46.814Z,19.40
2022-10-17T05:32:21.758Z,24.10
2022-10-17T05:34:49.195Z,21.70
2022-10-17T05:37:16.946Z,21.10
2022-10-17T05:39:50.714Z,20.40
2022-10-17T05:42:20.046Z,17.70
2022-10-17T05:44:48.051Z,30.40
2022-10-17T05:47:16.968Z,23.70
2022-10-17T05:49:48.670Z,21.90
2022-10-17T05:52:21.653Z,20.80
2022-10-17T05:55:06.170Z,20.80
2022-10-17T05:57:34.069Z,29.50
2022-10-17T06:00:01.882Z,22.50
2022-10-17T06:02:45.389Z,20.70
2022-10-17T06:05:14.357Z,19.60
2022-10-17T06:07:42.168Z,16.80
2022-10-17T06:10:12.511Z,20.60
2022-10-17T06:12:39.859Z,19.40
2022-10-17T06:15:08.857Z,18.30
2022-10-17T06:17:50.617Z,27.60
2022-10-17T06:20:17.733Z,22.70
2022-10-17T06:22:59.535Z,20.30
2022-10-17T06:25:47.206Z,21.80
2022-10-17T06:28:14.665Z,25.20
2022-10-17T06:30:42.301Z,21.90
2022-10-17T06:33:09.855Z,17.80
2022-10-17T06:35:37.543Z,17.30
2022-10-17T06:38:04.960Z,23.60
2022-10-17T06:40:33.290Z,17.30
2022-10-17T06:43:00.547Z,17.20
2022-10-17T06:45:47.342Z,16.80
2022-10-17T06:48:33.360Z,18.70
2022-10-17T06:51:19.214Z,17.10
2022-10-17T06:53:54.477Z,17.70
2022-10-17T06:56:48.165Z,18.90
2022-10-17T06:59:34.311Z,22.60
2022-10-17T07:02:11.911Z,20.30
2022-10-17T07:04:39.158Z,17.30
2022-10-17T07:07:06.332Z,22.10
2022-10-17T07:09:35.152Z,18.80
2022-10-17T07:12:16.833Z,18.90
2022-10-17T07:15:00.550Z,17.50
2022-10-17T07:17:28.196Z,21.20
2022-10-17T07:20:10.502Z,22.40
2022-10-17T07:22:53.150Z,18.80
2022-10-17T07:25:20.544Z,20.50
2022-10-17T07:27:55.596Z,26.00
2022-10-17T07:30:23.894Z,27.40
2022-10-17T07:33:00.982Z,25.60
2022-10-17T07:35:28.591Z,26.70
2022-10-17T07:37:56.812Z,29.80
2022-10-17T07:40:24.704Z,21.60
2022-10-17T07:42:53.071Z,29.30
2022-10-17T07:45:23.204Z,24.80
2022-10-17T07:47:50.486Z,30.60
2022-10-17T07:50:18.092Z,25.10
2022-10-17T07:52:59.945Z,24.00
2022-10-17T07:55:27.471Z,30.20
2022-10-17T07:57:54.880Z,28.20
2022-10-17T08:00:36.801Z,38.10
2022-10-17T08:03:04.957Z,38.40
2022-10-17T08:05:33.056Z,37.10
2022-10-17T08:08:14.694Z,34.90
2022-10-17T08:10:42.073Z,37.20
2022-10-17T08:13:09.863Z,30.60
2022-10-17T08:15:38.579Z,36.60
2022-10-17T08:18:06.173Z,35.90
2022-10-17T08:20:33.430Z,37.10
2022-10-17T08:23:00.561Z,32.20
2022-10-17T08:25:27.709Z,33.00
2022-10-17T08:27:55.036Z,34.00
2022-10-17T08:30:22.390Z,32.90
2022-10-17T08:32:49.771Z,40.00
2022-10-17T08:35:17.240Z,33.40
2022-10-17T08:38:01.265Z,34.20
2022-10-17T08:40:34.978Z,33.90
2022-10-17T08:43:22.129Z,32.00
2022-10-17T08:46:02.651Z,42.70
2022-10-17T08:48:33.671Z,41.80
2022-10-17T08:51:04.738Z,34.60
2022-10-17T08:53:51.423Z,38.40
2022-10-17T08:56:47.642Z,28.50
2022-10-17T08:59:18.342Z,29.70
2022-10-17T09:01:54.309Z,32.00
2022-10-17T09:04:53.098Z,31.50
2022-10-17T09:07:58.075Z,34.10
2022-10-17T09:10:59.227Z,34.40
2022-10-17T09:13:52.226Z,36.40
2022-10-17T09:17:03.091Z,30.50
2022-10-17T09:19:45.929Z,38.70
2022-10-17T09:22:23.728Z,33.10
2022-10-17T09:24:56.349Z,42.90
2022-10-17T09:27:40.731Z,36.40
2022-10-17T09:30:51.567Z,37.90
2022-10-17T09:33:35.443Z,33.10
2022-10-17T09:36:29.863Z,35.00
2022-10-17T09:39:00.483Z,39.90
2022-10-17T09:41:45.465Z,33.60
2022-10-17T09:44:18.871Z,33.60
2022-10-17T09:47:06.501Z,44.50
2022-10-17T09:49:37.327Z,30.10
2022-10-17T09:52:11.593Z,29.70
2022-10-17T09:54:46.260Z,31.70
2022-10-17T09:57:15.628Z,30.30
2022-10-17T09:59:55.842Z,33.30
2022-10-17T10:02:25.408Z,23.20
2022-10-17T10:05:19.583Z,12.80
2022-10-17T10:08:12.804Z,20.30
2022-10-17T10:10:42.741Z,19.00
2022-10-17T10:13:13.043Z,20.20
2022-10-17T10:15:46.822Z,21.20
2022-10-17T10:18:35.850Z,16.20
2022-10-17T10:21:09.771Z,17.90
2022-10-17T10:24:10.883Z,18.70
2022-10-17T10:26:48.611Z,15.20
2022-10-17T10:29:31.815Z,14.90
2022-10-17T10:32:32.765Z,23.10
2022-10-17T10:35:20.605Z,14.10
2022-10-17T10:37:54.632Z,16.60
2022-10-17T10:40:52.589Z,19.50
2022-10-17T10:43:39.235Z,15.90
2022-10-17T10:46:20.215Z,21.20
2022-10-17T10:48:54.764Z,19.10
2022-10-17T10:51:30.392Z,16.90
2022-10-17T10:54:05.043Z,20.20
2022-10-17T10:56:51.292Z,16.90
2022-10-17T10:59:26.112Z,17.20
2022-10-17T11:02:12.187Z,14.50
2022-10-17T11:05:02.892Z,16.10
2022-10-17T11:07:36.367Z,22.30
2022-10-17T11:10:25.598Z,21.00
2022-10-17T11:13:22.393Z,24.90
2022-10-17T11:15:59.775Z,19.10
2022-10-17T11:18:39.800Z,18.60
2022-10-17T11:21:24.614Z,18.00
2022-10-17T11:24:10.090Z,22.40
2022-10-17T11:26:44.544Z,26.40
2022-10-17T11:29:13.406Z,23.00
2022-10-17T11:31:50.065Z,21.30
2022-10-17T11:34:46.200Z,28.90
2022-10-17T11:37:29.007Z,21.70
2022-10-17T11:40:01.941Z,23.20
2022-10-17T11:43:01.172Z,25.00
2022-10-17T11:45:34.823Z,25.50
2022-10-17T11:48:13.856Z,22.40
2022-10-17T11:53:56.167Z,22.70
2022-10-17T11:56:51.135Z,26.20
2022-10-17T11:59:49.762Z,23.80
2022-10-17T12:02:34.494Z,23.40
2022-10-17T12:05:19.800Z,24.80
2022-10-17T12:08:03.188Z,23.40
2022-10-17T12:10:58.279Z,23.70
2022-10-17T12:13:28.569Z,25.80
2022-10-17T12:15:58.269Z,27.40
2022-10-17T12:18:29.217Z,30.40
2022-10-17T12:20:58.736Z,20.40
2022-10-17T12:23:31.207Z,26.60
2022-10-17T12:26:03.283Z,21.80
2022-10-17T12:28:38.146Z,17.60
2022-10-17T12:31:27.465Z,20.00
2022-10-17T12:34:02.789Z,18.60
2022-10-17T12:36:30.088Z,20.00
2022-10-17T12:39:03.519Z,21.00
2022-10-17T12:41:46.055Z,18.60
2022-10-17T12:44:14.692Z,20.40
2022-10-17T12:46:51.261Z,25.80
2022-10-17T12:52:34.605Z,17.60
2022-10-17T12:55:12.775Z,24.30
2022-10-17T12:57:50.117Z,22.90
2022-10-17T13:01:22.718Z,23.70
2022-10-17T13:03:47.727Z,22.90
2022-10-17T13:06:21.336Z,21.60
2022-10-17T13:08:56.853Z,30.60
2022-10-17T13:11:31.014Z,23.80
2022-10-17T13:14:01.788Z,21.90
2022-10-17T13:16:38.643Z,23.70
2022-10-17T13:19:18.332Z,30.80
2022-10-17T13:21:59.925Z,18.30
2022-10-17T13:24:32.695Z,24.70
2022-10-17T13:27:02.791Z,20.70
2022-10-17T13:29:33.945Z,23.30
2022-10-17T13:32:16.306Z,29.80
2022-10-17T13:34:44.272Z,20.10
2022-10-17T13:37:17.376Z,23.20
2022-10-17T13:39:55.666Z,27.90
2022-10-17T13:42:30.675Z,28.40
2022-10-17T13:44:59.271Z,28.90
2022-10-17T13:47:30.365Z,21.10
2022-10-17T13:49:58.830Z,18.40
2022-10-17T13:52:29.772Z,20.60
2022-10-17T13:55:19.752Z,27.20
2022-10-17T13:57:48.428Z,28.50
2022-10-17T14:00:21.552Z,24.10
2022-10-17T14:03:05.586Z,25.80
2022-10-17T14:05:36.736Z,23.90
2022-10-17T14:08:12.086Z,23.00
2022-10-17T14:10:44.788Z,24.20
2022-10-17T14:13:24.142Z,26.70
2022-10-17T14:15:55.403Z,19.00
2022-10-17T14:18:34.946Z,20.60
2022-10-17T14:24:28.398Z,25.90
2022-10-17T14:27:01.335Z,31.10
2022-10-17T14:29:50.576Z,27.00
2022-10-17T14:32:20.740Z,25.40
2022-10-17T14:35:01.430Z,38.10
2022-10-17T14:37:49.823Z,23.30
2022-10-17T14:40:25.748Z,27.00
2022-10-17T14:42:55.210Z,26.20
2022-10-17T14:45:29.441Z,26.00
2022-10-17T14:48:12.449Z,26.10
2022-10-17T14:50:40.428Z,25.50
2022-10-17T14:53:10.819Z,24.40
2022-10-17T14:55:40.297Z,29.30
2022-10-17T14:58:30.104Z,32.80
2022-10-17T15:00:59.740Z,27.10
2022-10-17T15:03:27.061Z,36.10
2022-10-17T15:05:55.501Z,39.60
2022-10-17T15:08:23.925Z,36.60
2022-10-17T15:10:52.255Z,38.80
2022-10-17T15:13:28.821Z,34.00
2022-10-17T15:15:57.471Z,46.30
2022-10-17T15:18:24.740Z,32.10
2022-10-17T15:20:59.781Z,39.70
2022-10-17T15:23:32.687Z,36.80
2022-10-17T15:26:01.244Z,36.60
2022-10-17T15:28:28.476Z,36.40
2022-10-17T15:30:55.762Z,37.40
2022-10-17T15:33:37.842Z,34.10
2022-10-17T15:36:05.088Z,34.90
2022-10-17T15:38:33.348Z,29.30
2022-10-17T15:41:00.924Z,41.80
2022-10-17T15:43:28.104Z,33.10
2022-10-17T15:45:56.032Z,36.90
2022-10-17T15:48:29.060Z,39.80
2022-10-17T15:50:57.152Z,35.10
2022-10-17T15:53:24.346Z,33.70
2022-10-17T15:55:51.894Z,43.10
2022-10-17T15:58:19.613Z,38.50
2022-10-17T16:00:47.909Z,31.20
2022-10-17T16:03:29.935Z,35.30
2022-10-17T16:06:14.149Z,35.30
2022-10-17T16:08:41.756Z,39.80
2022-10-17T16:11:40.204Z,38.40
2022-10-17T16:14:11.593Z,31.70
2022-10-17T16:16:53.207Z,39.90
2022-10-17T16:19:35.294Z,38.90
2022-10-17T16:22:04.639Z,37.60
2022-10-17T16:24:46.508Z,53.50
2022-10-17T16:27:13.868Z,40.20
2022-10-17T16:29:41.268Z,54.00
2022-10-17T16:32:09.237Z,39.40
2022-10-17T16:34:36.599Z,39.80
2022-10-17T16:37:03.973Z,36.50
2022-10-17T16:39:51.662Z,47.00
2022-10-17T16:42:20.351Z,38.30
2022-10-17T16:44:49.611Z,47.50
2022-10-17T16:47:18.658Z,41.60
2022-10-17T16:49:46.037Z,53.70
2022-10-17T16:52:14.237Z,52.90
2022-10-17T16:54:42.157Z,39.20
2022-10-17T16:57:09.532Z,40.50
2022-10-17T16:59:36.940Z,48.00
2022-10-17T17:02:04.746Z,50.70
2022-10-17T17:04:31.880Z,48.80
2022-10-17T17:06:59.334Z,43.90
2022-10-17T17:09:26.692Z,45.50
2022-10-17T17:11:53.888Z,36.00
2022-10-17T17:14:24.915Z,42.60
2022-10-17T17:16:55.227Z,40.20
2022-10-17T17:19:22.724Z,40.80
2022-10-17T17:21:51.302Z,46.70
2022-10-17T17:24:21.358Z,46.30
2022-10-17T17:26:54.690Z,38.30
2022-10-17T17:29:23.294Z,43.10
2022-10-17T17:31:50.941Z,40.30
2022-10-17T17:34:18.631Z,37.00
2022-10-17T17:36:45.983Z,35.10
2022-10-17T17:39:14.893Z,42.30
2022-10-17T17:41:45.131Z,49.30
2022-10-17T17:44:16.455Z,43.80
2022-10-17T17:46:44.850Z,48.70
2022-10-17T17:49:12.300Z,40.70
2022-10-17T17:51:54.035Z,39.80
2022-10-17T17:54:38.560Z,34.70
2022-10-17T17:57:08.453Z,40.90
2022-10-17T17:59:50.084Z,43.70
2022-10-17T18:02:17.495Z,37.10
2022-10-17T18:04:59.326Z,42.40
2022-10-17T18:07:27.010Z,55.30
2022-10-17T18:09:55.685Z,46.60
2022-10-17T18:12:23.180Z,38.90
2022-10-17T18:14:50.646Z,46.10
2022-10-17T18:17:17.931Z,43.70
2022-10-17T18:19:45.280Z,45.80
2022-10-17T18:22:12.625Z,45.90
2022-10-17T18:24:54.646Z,45.40
2022-10-17T18:27:22.188Z,43.40
2022-10-17T18:29:50.790Z,44.60
2022-10-17T18:32:18.484Z,46.10
2022-10-17T18:34:46.237Z,40.80
2022-10-17T18:37:13.530Z,39.20
2022-10-17T18:39:41.243Z,43.90
2022-10-17T18:42:08.601Z,41.50
2022-10-17T18:44:35.983Z,38.40
2022-10-17T18:47:07.447Z,42.00
2022-10-17T18:49:37.343Z,35.40
2022-10-17T18:52:06.205Z,49.90
2022-10-17T18:54:34.345Z,40.20
2022-10-17T18:57:01.775Z,40.50
2022-10-17T18:59:34.189Z,45.60
2022-10-17T19:02:24.093Z,34.10
2022-10-17T19:05:31.652Z,38.90
2022-10-17T19:08:49.984Z,37.10
2022-10-17T19:15:21.333Z,38.60
2022-10-17T19:18:21.190Z,44.20
2022-10-17T19:21:22.088Z,41.50
2022-10-17T19:24:45.459Z,42.30
2022-10-17T19:27:38.013Z,40.50
2022-10-17T19:30:06.191Z,35.60
2022-10-17T19:32:33.765Z,40.00
2022-10-17T19:35:01.494Z,38.60
2022-10-17T19:37:30.327Z,38.60
2022-10-17T19:40:13.005Z,35.90
2022-10-17T19:42:40.198Z,47.70
2022-10-17T19:45:08.529Z,34.80
2022-10-17T19:47:36.256Z,37.80
2022-10-17T19:52:31.732Z,44.30
2022-10-17T19:54:59.593Z,33.70
2022-10-17T19:57:26.969Z,37.60
2022-10-17T19:59:56.001Z,37.10
2022-10-17T20:02:23.442Z,34.90
2022-10-17T20:04:54.769Z,47.70
2022-10-17T20:07:39.259Z,36.30
2022-10-17T20:10:07.468Z,42.30
2022-10-17T20:12:34.522Z,40.70
2022-10-17T20:15:02.234Z,35.20
2022-10-17T20:17:29.506Z,36.90
2022-10-17T20:19:56.890Z,33.50
2022-10-17T20:22:24.664Z,44.00
2022-10-17T20:24:51.933Z,37.80
2022-10-17T20:27:19.068Z,39.40
2022-10-17T20:29:46.503Z,42.10
2022-10-17T20:32:13.996Z,29.60
2022-10-17T20:34:41.320Z,45.40
2022-10-17T20:37:08.764Z,34.00
2022-10-17T20:39:35.940Z,30.20
2022-10-17T20:42:17.586Z,37.60
2022-10-17T20:47:26.475Z,34.90
2022-10-17T20:50:14.292Z,52.00
2022-10-17T20:52:41.636Z,38.30
2022-10-17T20:55:09.209Z,38.40
2022-10-17T20:57:36.826Z,40.40
2022-10-17T21:00:04.976Z,44.60
2022-10-17T21:02:32.159Z,42.80
2022-10-17T21:04:59.390Z,37.70
2022-10-17T21:07:26.791Z,29.10
2022-10-17T21:09:54.250Z,32.80
2022-10-17T21:12:31.161Z,32.60
2022-10-17T21:15:09.697Z,34.30
2022-10-17T21:17:37.185Z,33.20
2022-10-17T21:20:05.154Z,34.40
2022-10-17T21:22:35.622Z,37.20
2022-10-17T21:25:03.113Z,36.50
2022-10-17T21:27:30.535Z,36.90
2022-10-17T21:29:57.762Z,37.20
2022-10-17T21:32:39.413Z,31.60
2022-10-17T21:35:12.463Z,29.30
2022-10-17T21:37:42.660Z,31.80
2022-10-17T21:40:10.839Z,35.20
2022-10-17T21:42:38.178Z,47.00
2022-10-17T21:45:25.850Z,36.20
2022-10-17T21:48:13.716Z,33.30
2022-10-17T21:50:41.337Z,30.40
2022-10-17T21:53:08.725Z,41.70
2022-10-17T21:55:37.343Z,41.10
2022-10-17T21:58:05.158Z,30.90
2022-10-17T22:00:32.461Z,35.80
2022-10-17T22:03:00.657Z,40.50
2022-10-17T22:05:29.993Z,32.40
2022-10-17T22:07:57.262Z,39.10
2022-10-17T22:10:24.475Z,36.30
2022-10-17T22:12:51.772Z,33.10
2022-10-17T22:15:18.808Z,33.20
2022-10-17T22:17:46.331Z,36.50
2022-10-17T22:20:14.001Z,30.50
2022-10-17T22:22:41.676Z,37.50
2022-10-17T22:25:09.411Z,33.30
2022-10-17T22:27:36.687Z,31.80
2022-10-17T22:30:05.391Z,29.90
2022-10-17T22:32:32.681Z,26.60
2022-10-17T22:35:00.039Z,27.10
2022-10-17T22:37:27.625Z,32.70
2022-10-17T22:39:55.229Z,30.80
2022-10-17T22:44:49.973Z,33.90
2022-10-17T22:47:32.036Z,31.40
2022-10-17T22:49:59.564Z,33.20
2022-10-17T22:52:27.109Z,31.20
2022-10-17T22:54:54.656Z,30.80
2022-10-17T22:57:36.508Z,31.50
2022-10-17T23:00:18.489Z,32.00
2022-10-17T23:02:45.689Z,29.70
2022-10-17T23:05:13.266Z,29.30
2022-10-17T23:07:40.694Z,29.70
2022-10-17T23:10:08.752Z,28.10
2022-10-17T23:12:50.445Z,32.20
2022-10-17T23:15:17.856Z,35.30
2022-10-17T23:18:00.907Z,33.80
2022-10-17T23:20:42.690Z,36.10
2022-10-17T23:23:10.198Z,29.70
2022-10-17T23:25:52.048Z,31.50
2022-10-17T23:28:19.933Z,32.30
2022-10-17T23:30:47.800Z,29.70
2022-10-17T23:33:15.263Z,34.50
2022-10-17T23:35:42.966Z,32.40
2022-10-17T23:38:10.554Z,29.60
2022-10-17T23:40:38.099Z,29.10
2022-10-17T23:43:05.496Z,30.90
2022-10-17T23:45:35.976Z,27.10
2022-10-17T23:48:05.074Z,32.00
2022-10-17T23:50:32.589Z,29.10
2022-10-17T23:52:59.901Z,30.40
2022-10-17T23:55:27.504Z,30.50
2022-10-17T23:57:55.024Z,33.40
